« Back
NWS Peachtree City, Ga » Text Product » MCN Terminal Aerodrome Forecast


Printer-friendly Version
Current Version              Previous Versions:   1  2  3  4  5  6  7  8  9  

Terminal Aerodrome Forecast

039
FTUS42 KFFC 271720
TAFMCN
TAF
KMCN 271720Z 2718/2818 30013G23KT P6SM BKN050
     FM272300 32010KT P6SM SCT040
     FM280400 32006KT P6SM FEW040
     FM281200 33003KT P6SM SKC=

USA.gov is the U.S. government's official web portal to all federal, state and local government web resources and services.